UAL1622 KIAH-MMPR
Flight info
| Callsign | UAL1622 |
|---|---|
| Flight time | N/A |
| Altitude | 36000 |
| Route | RITAA7 CRP DCT DEVOE DCT MTY DCT OTEKA UT1 KEDMA KEDMA1A |
| Aircraft | B738/M-SDE2E3FGHIRWXY/LB1 |
Departure
| Time | N/A |
|---|---|
| Airport | George Bush Intercontinental Airport (KIAH) |
Arrival
| Time | 2026-04-25 15:39 |
|---|---|
| Airport | Puerto Vallarta International Airport (MMPR) |
| Time | Latitude | Longitude | Altitude | Speed | Heading |
|---|---|---|---|---|---|
| 2026-04-25 15:26 | 21.12235 | -105.07487 | 14982 ft | 346 kts | 217° |
| 2026-04-25 15:26 | 21.10313 | -105.08987 | 14609 ft | 345 kts | 217° |
| 2026-04-25 15:26 | 21.08382 | -105.10493 | 14357 ft | 339 kts | 216° |
| 2026-04-25 15:27 | 21.06478 | -105.11977 | 14169 ft | 331 kts | 216° |
| 2026-04-25 15:27 | 21.04656 | -105.13397 | 14029 ft | 323 kts | 216° |
| 2026-04-25 15:27 | 21.01012 | -105.16234 | 13186 ft | 325 kts | 216° |
| 2026-04-25 15:28 | 20.99191 | -105.17652 | 12756 ft | 326 kts | 216° |
| 2026-04-25 15:28 | 20.97338 | -105.19094 | 12325 ft | 326 kts | 216° |
| 2026-04-25 15:28 | 20.95497 | -105.20526 | 11899 ft | 327 kts | 216° |
| 2026-04-25 15:28 | 20.93685 | -105.21936 | 11466 ft | 322 kts | 216° |
| 2026-04-25 15:29 | 20.91886 | -105.23335 | 11040 ft | 315 kts | 216° |
| 2026-04-25 15:29 | 20.90120 | -105.24708 | 10629 ft | 308 kts | 216° |
| 2026-04-25 15:29 | 20.88410 | -105.26038 | 10229 ft | 302 kts | 216° |
| 2026-04-25 15:29 | 20.86741 | -105.27335 | 9904 ft | 294 kts | 216° |
| 2026-04-25 15:30 | 20.85110 | -105.28602 | 9448 ft | 291 kts | 216° |
| 2026-04-25 15:30 | 20.83509 | -105.29845 | 9214 ft | 282 kts | 216° |
| 2026-04-25 15:30 | 20.81886 | -105.31104 | 8692 ft | 287 kts | 217° |
| 2026-04-25 15:30 | 20.80301 | -105.32334 | 8277 ft | 283 kts | 217° |
| 2026-04-25 15:31 | 20.78714 | -105.33565 | 7896 ft | 278 kts | 217° |
| 2026-04-25 15:31 | 20.77167 | -105.34765 | 7526 ft | 273 kts | 217° |
| 2026-04-25 15:31 | 20.75628 | -105.35959 | 7161 ft | 270 kts | 217° |
| 2026-04-25 15:31 | 20.74125 | -105.37124 | 6804 ft | 268 kts | 217° |
| 2026-04-25 15:32 | 20.72612 | -105.38297 | 6444 ft | 267 kts | 217° |
| 2026-04-25 15:32 | 20.71102 | -105.39466 | 6071 ft | 265 kts | 217° |
| 2026-04-25 15:32 | 20.69627 | -105.40610 | 5758 ft | 262 kts | 217° |
| 2026-04-25 15:33 | 20.66695 | -105.42881 | 5159 ft | 259 kts | 216° |
| 2026-04-25 15:33 | 20.65244 | -105.44003 | 4858 ft | 253 kts | 216° |
| 2026-04-25 15:33 | 20.63757 | -105.44967 | 4570 ft | 252 kts | 198° |
| 2026-04-25 15:33 | 20.62045 | -105.45088 | 4435 ft | 245 kts | 167° |
| 2026-04-25 15:34 | 20.60523 | -105.44334 | 4213 ft | 242 kts | 143° |
| 2026-04-25 15:34 | 20.59254 | -105.43175 | 4069 ft | 237 kts | 137° |
| 2026-04-25 15:34 | 20.58062 | -105.41982 | 3706 ft | 238 kts | 136° |
| 2026-04-25 15:34 | 20.57343 | -105.41068 | 3333 ft | 240 kts | 117° |
| 2026-04-25 15:35 | 20.57849 | -105.37493 | 2820 ft | 206 kts | 61° |
| 2026-04-25 15:35 | 20.58641 | -105.36268 | 2560 ft | 199 kts | 51° |
| 2026-04-25 15:35 | 20.59543 | -105.35137 | 2300 ft | 199 kts | 47° |
| 2026-04-25 15:36 | 20.61343 | -105.33064 | 1785 ft | 180 kts | 46° |
| 2026-04-25 15:36 | 20.62165 | -105.32122 | 1563 ft | 166 kts | 46° |
| 2026-04-25 15:36 | 20.62929 | -105.31246 | 1328 ft | 153 kts | 46° |
| 2026-04-25 15:37 | 20.63615 | -105.30459 | 1117 ft | 142 kts | 46° |
| 2026-04-25 15:37 | 20.64275 | -105.29702 | 922 ft | 138 kts | 46° |
| 2026-04-25 15:37 | 20.64930 | -105.28951 | 739 ft | 139 kts | 47° |
| 2026-04-25 15:37 | 20.65594 | -105.28190 | 544 ft | 140 kts | 47° |
| 2026-04-25 15:38 | 20.66245 | -105.27447 | 369 ft | 135 kts | 48° |
| 2026-04-25 15:38 | 20.66872 | -105.26723 | 111 ft | 132 kts | 48° |
| 2026-04-25 15:38 | 20.67459 | -105.26044 | 29 ft | 114 kts | 47° |
| 2026-04-25 15:38 | 20.67851 | -105.25595 | 29 ft | 51 kts | 47° |
| 2026-04-25 15:39 | 20.67980 | -105.25446 | 29 ft | 20 kts | 50° |
| 2026-04-25 15:39 | 20.68021 | -105.25332 | 29 ft | 17 kts | 125° |
| 2026-04-25 15:39 | 20.67959 | -105.25264 | 28 ft | 10 kts | 120° |
| 2026-04-25 15:39 | 20.67977 | -105.25193 | 28 ft | 11 kts | 50° |
| 2026-04-25 15:40 | 20.68032 | -105.25134 | 28 ft | 11 kts | 46° |
| 2026-04-25 15:40 | 20.68050 | -105.25114 | 28 ft | 11 kts | 45° |
| 2026-04-25 15:40 | 20.68057 | -105.25005 | 28 ft | 11 kts | 137° |
| 2026-04-25 15:40 | 20.68004 | -105.24952 | 28 ft | 10 kts | 136° |
| 2026-04-25 15:41 | 20.67987 | -105.24888 | 28 ft | 10 kts | 64° |
| 2026-04-25 15:41 | 20.67981 | -105.24823 | 28 ft | 9 kts | 132° |
| 2026-04-25 15:41 | 20.67938 | -105.24772 | 28 ft | 8 kts | 134° |
| 2026-04-25 15:41 | 20.67903 | -105.24744 | 28 ft | 6 kts | 166° |
| 2026-04-25 15:42 | 20.67877 | -105.24759 | 28 ft | 4 kts | 229° |
| 2026-04-25 15:42 | 20.67868 | -105.24770 | 28 ft | 2 kts | 228° |
| 2026-04-25 15:42 | 20.67863 | -105.24776 | 28 ft | 0 kts | 227° |
| 2026-04-25 15:42 | 20.67848 | -105.24797 | 28 ft | 0 kts | 229° |